Terminal Aerodrome Forecast
Issued by NWS Goodland, KS

Home | Current Version | Previous Version | Text Only | Print | Product List | Glossary On
Versions: 1 2 3 4 5 6 7 8 9 10 11 12 13 14 15 16
000
FTUS43 KGLD 050536
TAFGLD
TAF
KGLD 050536Z 0506/0606 19004KT P6SM SCT200
     FM050900 29005KT 5SM BR FEW010
     FM051100 32005KT 1SM BR BKN005
     FM051400 35006KT 4SM BR SCT010
     FM051600 VRB05KT P6SM FEW050
     FM052300 13010KT P6SM SKC=

USA.gov is the U.S. government's official web portal to all federal, state and local government web resources and services.